createdAt,value
2022-11-10T00:01:18.464Z,22.18
2022-11-10T00:03:45.003Z,22.20
2022-11-10T00:06:11.534Z,22.17
2022-11-10T00:08:38.079Z,22.20
2022-11-10T00:11:06.821Z,22.18
2022-11-10T00:13:35.353Z,22.16
2022-11-10T00:16:21.750Z,22.19
2022-11-10T00:18:48.228Z,22.19
2022-11-10T00:21:15.292Z,22.18
2022-11-10T00:23:41.944Z,22.19
2022-11-10T00:26:13.119Z,22.19
2022-11-10T00:28:39.646Z,22.18
2022-11-10T00:31:07.091Z,22.16
2022-11-10T00:33:41.244Z,22.19
2022-11-10T00:36:08.024Z,22.18
2022-11-10T00:38:34.556Z,22.17
2022-11-10T00:41:01.155Z,22.19
2022-11-10T00:43:28.554Z,22.17
2022-11-10T00:45:55.295Z,22.17
2022-11-10T00:48:21.886Z,22.16
2022-11-10T00:50:48.399Z,22.18
2022-11-10T00:53:14.939Z,22.17
2022-11-10T00:55:41.577Z,22.17
2022-11-10T00:58:08.112Z,22.18
2022-11-10T01:00:34.727Z,22.17
2022-11-10T01:03:02.558Z,22.18
2022-11-10T01:05:30.177Z,22.18
2022-11-10T01:07:57.807Z,22.11
2022-11-10T01:10:24.306Z,22.15
2022-11-10T01:12:50.804Z,22.18
2022-11-10T01:15:17.316Z,22.18
2022-11-10T01:17:43.826Z,22.18
2022-11-10T01:20:10.716Z,22.18
2022-11-10T01:22:37.234Z,22.14
2022-11-10T01:25:04.413Z,22.18
2022-11-10T01:27:30.908Z,22.18
2022-11-10T01:29:57.386Z,22.15
2022-11-10T01:32:23.960Z,22.18
2022-11-10T01:34:50.464Z,22.18
2022-11-10T01:37:17.069Z,22.17
2022-11-10T01:39:43.556Z,21.98
2022-11-10T01:42:10.046Z,22.17
2022-11-10T01:44:36.633Z,22.16
2022-11-10T01:47:03.115Z,22.18
2022-11-10T01:49:32.368Z,22.13
2022-11-10T01:52:01.924Z,22.18
2022-11-10T01:54:31.003Z,22.08
2022-11-10T01:57:02.957Z,22.17
2022-11-10T01:59:31.416Z,22.18
2022-11-10T02:02:06.972Z,22.18
2022-11-10T02:04:33.508Z,22.17
2022-11-10T02:07:00.075Z,22.15
2022-11-10T02:09:26.643Z,22.18
2022-11-10T02:11:54.087Z,22.09
2022-11-10T02:14:20.609Z,22.18
2022-11-10T02:16:47.264Z,22.17
2022-11-10T02:19:16.058Z,22.16
2022-11-10T02:21:42.618Z,22.17
2022-11-10T02:24:09.092Z,22.17
2022-11-10T02:26:35.621Z,22.08
2022-11-10T02:29:02.131Z,22.17
2022-11-10T02:31:28.625Z,22.14
2022-11-10T02:33:55.140Z,22.17
2022-11-10T02:36:21.658Z,22.17
2022-11-10T02:38:48.202Z,22.12
2022-11-10T02:41:14.736Z,22.16
2022-11-10T02:43:41.243Z,22.17
2022-11-10T02:46:07.805Z,22.10
2022-11-10T02:48:34.291Z,22.16
2022-11-10T02:51:00.821Z,22.14
2022-11-10T02:53:27.311Z,22.16
2022-11-10T02:55:53.830Z,22.11
2022-11-10T02:58:20.322Z,22.17
2022-11-10T03:00:46.826Z,22.15
2022-11-10T03:03:13.330Z,22.15
2022-11-10T03:05:39.879Z,22.16
2022-11-10T03:08:06.412Z,22.16
2022-11-10T03:10:32.976Z,22.11
2022-11-10T03:13:00.892Z,22.15
2022-11-10T03:15:27.444Z,22.15
2022-11-10T03:17:53.991Z,22.15
2022-11-10T03:20:20.518Z,22.15
2022-11-10T03:22:47.041Z,22.12
2022-11-10T03:25:13.600Z,22.15
2022-11-10T03:27:40.087Z,22.15
2022-11-10T03:30:07.348Z,22.14
2022-11-10T03:32:33.838Z,22.15
2022-11-10T03:35:00.329Z,22.15
2022-11-10T03:37:26.790Z,22.15
2022-11-10T03:39:53.369Z,22.16
2022-11-10T03:42:19.860Z,22.12
2022-11-10T03:44:46.351Z,22.12
2022-11-10T03:47:12.859Z,22.13
2022-11-10T03:49:39.442Z,22.15
2022-11-10T03:52:05.969Z,22.14
2022-11-10T03:54:32.549Z,22.12
2022-11-10T03:56:59.223Z,22.15
2022-11-10T03:59:25.690Z,22.15
2022-11-10T04:01:52.321Z,22.15
2022-11-10T04:04:36.977Z,22.11
2022-11-10T04:07:21.841Z,22.15
2022-11-10T04:09:48.319Z,22.15
2022-11-10T04:12:33.541Z,22.16
2022-11-10T04:15:18.372Z,22.11
2022-11-10T04:17:50.927Z,22.15
2022-11-10T04:20:17.667Z,22.15
2022-11-10T04:23:02.550Z,22.15
2022-11-10T04:25:29.053Z,22.15
2022-11-10T04:27:55.527Z,22.15
2022-11-10T04:30:22.050Z,22.15
2022-11-10T04:32:48.519Z,22.15
2022-11-10T04:35:15.026Z,22.10
2022-11-10T04:37:41.549Z,22.15
2022-11-10T04:40:08.529Z,22.15
2022-11-10T04:42:35.045Z,22.09
2022-11-10T04:45:01.542Z,22.15
2022-11-10T04:47:28.054Z,22.15
2022-11-10T04:49:54.526Z,21.89
2022-11-10T04:52:21.038Z,22.16
2022-11-10T04:54:47.528Z,22.15
2022-11-10T04:57:14.007Z,22.13
2022-11-10T04:59:40.515Z,22.15
2022-11-10T05:02:07.033Z,22.14
2022-11-10T05:04:33.515Z,22.14
2022-11-10T05:07:00.045Z,22.14
2022-11-10T05:09:26.591Z,22.15
2022-11-10T05:11:53.066Z,22.15
2022-11-10T05:14:19.590Z,22.15
2022-11-10T05:16:46.102Z,22.15
2022-11-10T05:19:12.674Z,22.10
2022-11-10T05:21:39.163Z,22.15
2022-11-10T05:24:05.954Z,22.12
2022-11-10T05:26:32.430Z,22.16
2022-11-10T05:28:58.921Z,22.15
2022-11-10T05:31:26.083Z,22.15
2022-11-10T05:33:52.564Z,22.14
2022-11-10T05:36:19.067Z,22.16
2022-11-10T05:38:45.596Z,22.16
2022-11-10T05:41:12.349Z,22.16
2022-11-10T05:43:38.878Z,22.15
2022-11-10T05:46:05.476Z,22.16
2022-11-10T05:48:31.983Z,22.15
2022-11-10T05:50:58.525Z,22.15
2022-11-10T05:53:25.324Z,22.15
2022-11-10T05:55:52.017Z,22.16
2022-11-10T05:58:18.533Z,22.16
2022-11-10T06:00:45.047Z,22.17
2022-11-10T06:03:16.042Z,22.18
2022-11-10T06:05:42.538Z,22.08
2022-11-10T06:08:09.233Z,22.12
2022-11-10T06:10:36.018Z,22.11
2022-11-10T06:13:02.681Z,22.14
2022-11-10T06:15:29.299Z,22.08
2022-11-10T06:17:55.939Z,22.12
2022-11-10T06:20:22.680Z,22.12
2022-11-10T06:23:02.166Z,21.95
2022-11-10T06:25:29.735Z,22.07
2022-11-10T06:27:56.451Z,22.05
2022-11-10T06:30:23.805Z,22.02
2022-11-10T06:32:50.466Z,21.99
2022-11-10T06:35:16.993Z,21.98
2022-11-10T06:37:43.525Z,21.94
2022-11-10T06:40:10.744Z,21.96
2022-11-10T06:42:37.262Z,21.92
2022-11-10T06:45:04.013Z,21.93
2022-11-10T06:47:30.532Z,21.88
2022-11-10T06:49:57.027Z,21.86
2022-11-10T06:52:23.537Z,21.84
2022-11-10T06:54:50.023Z,21.86
2022-11-10T06:57:16.901Z,21.85
2022-11-10T06:59:43.390Z,21.80
2022-11-10T07:02:15.818Z,21.86
2022-11-10T07:04:45.413Z,21.86
2022-11-10T07:07:12.072Z,21.83
2022-11-10T07:09:38.771Z,21.84
2022-11-10T07:12:05.527Z,21.82
2022-11-10T07:14:32.037Z,21.88
2022-11-10T07:16:58.547Z,21.88
2022-11-10T07:19:25.131Z,21.89
2022-11-10T07:21:51.839Z,21.89
2022-11-10T07:24:18.335Z,21.87
2022-11-10T07:26:44.851Z,21.89
2022-11-10T07:29:11.595Z,21.86
2022-11-10T07:31:38.094Z,21.90
2022-11-10T07:34:04.579Z,21.91
2022-11-10T07:36:31.090Z,21.92
2022-11-10T07:38:57.575Z,21.92
2022-11-10T07:41:24.099Z,21.87
2022-11-10T07:43:50.570Z,21.92
2022-11-10T07:46:17.071Z,21.93
2022-11-10T07:48:43.601Z,21.90
2022-11-10T07:51:10.193Z,21.94
2022-11-10T07:53:36.653Z,21.92
2022-11-10T07:56:03.124Z,21.93
2022-11-10T07:58:30.309Z,21.87
2022-11-10T08:00:56.805Z,21.92
2022-11-10T08:03:23.696Z,21.94
2022-11-10T08:05:50.407Z,21.87
2022-11-10T08:08:17.068Z,21.87
2022-11-10T08:10:43.661Z,21.81
2022-11-10T08:13:11.526Z,21.87
2022-11-10T08:15:38.231Z,21.65
2022-11-10T08:18:21.724Z,21.83
2022-11-10T08:20:48.777Z,21.76
2022-11-10T08:23:16.056Z,21.80
2022-11-10T08:25:42.597Z,21.73
2022-11-10T08:28:13.779Z,21.70
2022-11-10T08:30:41.068Z,21.74
2022-11-10T08:33:08.308Z,21.73
2022-11-10T08:35:36.600Z,21.72
2022-11-10T08:38:09.434Z,21.70
2022-11-10T08:40:36.952Z,21.70
2022-11-10T08:43:07.403Z,21.70
2022-11-10T08:45:37.705Z,21.71
2022-11-10T08:48:08.294Z,21.72
2022-11-10T08:50:34.875Z,21.73
2022-11-10T08:53:02.677Z,21.73
2022-11-10T08:55:29.420Z,21.69
2022-11-10T08:58:00.694Z,21.77
2022-11-10T09:00:28.801Z,21.78
2022-11-10T09:02:56.279Z,21.78
2022-11-10T09:05:23.829Z,21.79
2022-11-10T09:07:50.482Z,21.77
2022-11-10T09:10:17.060Z,21.78
2022-11-10T09:12:43.597Z,21.81
2022-11-10T09:15:10.411Z,21.82
2022-11-10T09:17:37.723Z,21.81
2022-11-10T09:20:05.386Z,21.83
2022-11-10T09:22:31.989Z,21.84
2022-11-10T09:24:58.493Z,21.79
2022-11-10T09:27:24.997Z,21.86
2022-11-10T09:29:51.514Z,21.88
2022-11-10T09:32:17.982Z,21.88
2022-11-10T09:34:48.895Z,21.86
2022-11-10T09:37:18.322Z,21.89
2022-11-10T09:39:45.287Z,21.90
2022-11-10T09:42:30.328Z,21.80
2022-11-10T09:45:11.147Z,21.84
2022-11-10T09:47:58.100Z,21.80
2022-11-10T09:50:53.045Z,21.92
2022-11-10T09:53:25.421Z,21.92
2022-11-10T09:55:53.904Z,21.93
2022-11-10T09:58:22.197Z,21.86
2022-11-10T10:01:02.403Z,21.87
2022-11-10T10:03:29.145Z,21.90
2022-11-10T10:06:05.139Z,21.94
2022-11-10T10:08:40.644Z,21.94
2022-11-10T10:11:25.907Z,21.94
2022-11-10T10:14:00.559Z,21.95
2022-11-10T10:16:33.238Z,21.95
2022-11-10T10:19:12.080Z,21.88
2022-11-10T10:21:50.294Z,21.96
2022-11-10T10:24:21.834Z,21.87
2022-11-10T10:26:53.511Z,21.96
2022-11-10T10:29:23.254Z,21.97
2022-11-10T10:31:51.089Z,21.96
2022-11-10T10:34:24.839Z,21.93
2022-11-10T10:36:51.353Z,21.97
2022-11-10T10:39:42.752Z,21.97
2022-11-10T10:42:36.344Z,21.96
2022-11-10T10:45:39.282Z,21.97
2022-11-10T10:48:06.147Z,21.96
2022-11-10T10:50:34.435Z,21.95
2022-11-10T10:53:07.462Z,21.96
2022-11-10T10:55:35.072Z,21.90
2022-11-10T10:58:04.302Z,21.96
2022-11-10T11:00:30.913Z,21.98
2022-11-10T11:03:10.887Z,21.95
2022-11-10T11:05:37.392Z,21.97
2022-11-10T11:08:04.015Z,21.99
2022-11-10T11:10:33.239Z,21.95
2022-11-10T11:13:25.177Z,22.01
2022-11-10T11:15:58.380Z,21.99
2022-11-10T11:18:25.934Z,22.01
2022-11-10T11:21:01.388Z,22.02
2022-11-10T11:23:42.939Z,22.02
2022-11-10T11:26:23.697Z,22.02
2022-11-10T11:29:14.952Z,22.02
2022-11-10T11:31:50.425Z,22.03
2022-11-10T11:34:21.507Z,21.91
2022-11-10T11:37:15.254Z,22.02
2022-11-10T11:39:57.105Z,22.02
2022-11-10T11:42:37.206Z,22.00
2022-11-10T11:45:25.152Z,22.03
2022-11-10T11:48:14.350Z,22.03
2022-11-10T11:50:50.414Z,22.03
2022-11-10T11:53:25.955Z,22.03
2022-11-10T11:56:30.063Z,22.03
2022-11-10T11:58:59.502Z,22.03
2022-11-10T12:01:41.237Z,22.03
2022-11-10T12:04:25.253Z,22.02
2022-11-10T12:07:03.952Z,22.03
2022-11-10T12:09:44.919Z,22.03
2022-11-10T12:12:18.967Z,22.02
2022-11-10T12:15:07.794Z,21.35
2022-11-10T12:17:56.316Z,22.03
2022-11-10T12:20:31.996Z,22.02
2022-11-10T12:23:05.347Z,22.03
2022-11-10T12:25:36.435Z,21.93
2022-11-10T12:28:12.699Z,22.03
2022-11-10T12:30:39.345Z,22.01
2022-11-10T12:33:23.742Z,22.03
2022-11-10T12:35:50.291Z,22.03
2022-11-10T12:38:20.056Z,22.04
2022-11-10T12:40:51.847Z,22.03
2022-11-10T12:43:43.243Z,22.03
2022-11-10T12:46:11.978Z,22.03
2022-11-10T12:49:00.784Z,22.01
2022-11-10T12:51:38.877Z,21.98
2022-11-10T12:54:12.344Z,21.93
2022-11-10T12:56:45.958Z,22.04
2022-11-10T12:59:36.430Z,22.04
2022-11-10T13:02:38.567Z,22.05
2022-11-10T13:05:14.031Z,22.06
2022-11-10T13:07:44.571Z,21.88
2022-11-10T13:10:26.520Z,22.07
2022-11-10T13:12:59.011Z,22.07
2022-11-10T13:15:43.693Z,22.08
2022-11-10T13:18:10.475Z,22.07
2022-11-10T13:20:40.026Z,22.08
2022-11-10T13:23:28.498Z,22.04
2022-11-10T13:26:07.928Z,22.08
2022-11-10T13:28:49.461Z,22.08
2022-11-10T13:31:28.139Z,22.09
2022-11-10T13:34:27.724Z,22.08
2022-11-10T13:36:54.508Z,22.08
2022-11-10T13:41:49.552Z,22.03
2022-11-10T13:44:25.629Z,22.09
2022-11-10T13:47:07.505Z,22.08
2022-11-10T13:49:58.886Z,22.08
2022-11-10T13:52:51.595Z,22.07
2022-11-10T13:55:38.826Z,22.07
2022-11-10T13:58:07.900Z,22.09
2022-11-10T14:00:35.589Z,22.04
2022-11-10T14:03:03.094Z,22.10
2022-11-10T14:05:29.725Z,22.09
2022-11-10T14:08:06.161Z,22.04
2022-11-10T14:10:51.647Z,22.10
2022-11-10T14:13:24.277Z,22.10
2022-11-10T14:15:50.811Z,22.09
2022-11-10T14:18:25.623Z,22.09
2022-11-10T14:20:57.205Z,22.00
2022-11-10T14:23:46.087Z,22.10
2022-11-10T14:26:34.927Z,22.11
2022-11-10T14:29:40.268Z,22.11
2022-11-10T14:32:20.276Z,22.10
2022-11-10T14:34:49.164Z,22.11
2022-11-10T14:37:20.814Z,22.01
2022-11-10T14:39:47.361Z,22.04
2022-11-10T14:42:14.966Z,22.11
2022-11-10T14:44:41.495Z,22.10
2022-11-10T14:47:27.510Z,22.10
2022-11-10T14:50:32.024Z,22.10
2022-11-10T14:53:02.568Z,22.09
2022-11-10T14:55:33.972Z,22.04
2022-11-10T14:58:17.837Z,22.08
2022-11-10T15:00:44.586Z,22.04
2022-11-10T15:05:40.300Z,22.00
2022-11-10T15:08:07.032Z,22.03
2022-11-10T15:10:39.459Z,22.08
2022-11-10T15:13:11.972Z,22.08
2022-11-10T15:15:38.863Z,22.03
2022-11-10T15:18:05.614Z,22.03
2022-11-10T15:20:39.917Z,22.08
2022-11-10T15:23:22.008Z,22.06
2022-11-10T15:25:52.968Z,22.09
2022-11-10T15:28:27.228Z,22.10
2022-11-10T15:30:58.899Z,22.01
2022-11-10T15:33:27.198Z,22.05
2022-11-10T15:35:55.404Z,22.10
2022-11-10T15:38:30.443Z,22.12
2022-11-10T15:41:13.424Z,22.10
2022-11-10T15:43:40.318Z,22.13
2022-11-10T15:46:17.735Z,22.12
2022-11-10T15:48:49.086Z,22.13
2022-11-10T15:51:19.059Z,22.09
2022-11-10T15:53:49.914Z,22.14
2022-11-10T15:56:18.163Z,22.14
2022-11-10T15:58:51.770Z,22.14
2022-11-10T16:01:18.418Z,22.15
2022-11-10T16:03:44.960Z,22.15
2022-11-10T16:06:13.387Z,22.15
2022-11-10T16:08:40.085Z,22.15
2022-11-10T16:11:10.240Z,22.08
2022-11-10T16:13:36.747Z,22.16
2022-11-10T16:16:03.394Z,22.11
2022-11-10T16:18:30.278Z,22.12
2022-11-10T16:20:56.889Z,22.17
2022-11-10T16:23:24.020Z,22.17
2022-11-10T16:25:50.987Z,22.18
2022-11-10T16:28:19.907Z,22.19
2022-11-10T16:30:46.688Z,22.19
2022-11-10T16:33:17.406Z,22.19
2022-11-10T16:35:43.897Z,22.16
2022-11-10T16:38:21.959Z,22.20
2022-11-10T16:41:11.399Z,22.21
2022-11-10T16:43:37.922Z,22.20
2022-11-10T16:46:06.515Z,22.14
2022-11-10T16:48:34.126Z,22.17
2022-11-10T16:51:00.650Z,22.12
2022-11-10T16:53:28.105Z,22.21
2022-11-10T16:55:54.641Z,22.18
2022-11-10T16:58:21.548Z,22.21
2022-11-10T17:00:48.301Z,22.18
2022-11-10T17:03:25.002Z,22.20
2022-11-10T17:05:51.476Z,22.20
2022-11-10T17:08:25.236Z,22.18
2022-11-10T17:10:51.866Z,22.21
2022-11-10T17:13:18.505Z,22.18
2022-11-10T17:15:45.141Z,22.18
2022-11-10T17:18:13.942Z,22.18
2022-11-10T17:20:41.509Z,22.15
2022-11-10T17:23:08.258Z,22.21
2022-11-10T17:25:35.442Z,22.11
2022-11-10T17:28:02.050Z,22.20
2022-11-10T17:30:28.559Z,22.21
2022-11-10T17:33:04.563Z,22.21
2022-11-10T17:35:35.054Z,22.20
2022-11-10T17:38:05.852Z,22.21
2022-11-10T17:40:32.434Z,22.20
2022-11-10T17:42:58.905Z,22.20
2022-11-10T17:45:26.435Z,22.20
2022-11-10T17:47:53.098Z,22.16
2022-11-10T17:50:20.714Z,22.18
2022-11-10T17:52:47.273Z,22.18
2022-11-10T17:55:22.809Z,22.21
2022-11-10T17:57:49.349Z,22.21
2022-11-10T18:00:16.692Z,22.20
2022-11-10T18:02:43.688Z,22.21
2022-11-10T18:05:19.262Z,22.21
2022-11-10T18:07:45.777Z,22.21
2022-11-10T18:10:14.204Z,22.21
2022-11-10T18:12:40.859Z,22.18
2022-11-10T18:15:14.701Z,22.20
2022-11-10T18:17:41.530Z,22.21
2022-11-10T18:20:09.556Z,22.15
2022-11-10T18:22:36.399Z,22.19
2022-11-10T18:25:02.946Z,22.19
2022-11-10T18:27:29.559Z,22.20
2022-11-10T18:29:56.069Z,22.17
2022-11-10T18:32:23.366Z,22.19
2022-11-10T18:34:50.020Z,22.19
2022-11-10T18:37:17.146Z,22.19
2022-11-10T18:39:43.678Z,22.16
2022-11-10T18:42:10.214Z,22.19
2022-11-10T18:44:37.154Z,22.11
2022-11-10T18:47:04.511Z,22.19
2022-11-10T18:49:31.046Z,22.19
2022-11-10T18:51:58.082Z,22.19
2022-11-10T18:54:25.724Z,22.19
2022-11-10T18:56:52.301Z,22.20
2022-11-10T18:59:18.845Z,22.19
2022-11-10T19:01:45.412Z,22.16
2022-11-10T19:04:12.062Z,22.08
2022-11-10T19:06:38.854Z,22.20
2022-11-10T19:09:05.437Z,22.19
2022-11-10T19:11:32.557Z,22.19
2022-11-10T19:14:00.779Z,22.19
2022-11-10T19:16:27.442Z,22.20
2022-11-10T19:18:54.081Z,22.20
2022-11-10T19:21:22.282Z,22.18
2022-11-10T19:23:48.846Z,22.19
2022-11-10T19:26:22.233Z,22.19
2022-11-10T19:28:49.534Z,22.16
2022-11-10T19:31:17.218Z,22.18
2022-11-10T19:33:44.449Z,21.49
2022-11-10T19:36:18.827Z,22.17
2022-11-10T19:38:45.602Z,22.17
2022-11-10T19:41:14.315Z,22.17
2022-11-10T19:43:44.920Z,22.17
2022-11-10T19:46:18.516Z,22.18
2022-11-10T19:48:45.106Z,22.18
2022-11-10T19:51:13.520Z,22.18
2022-11-10T19:53:43.618Z,22.18
2022-11-10T19:56:16.930Z,22.19
2022-11-10T19:58:43.499Z,22.19
2022-11-10T20:01:11.039Z,22.18
2022-11-10T20:03:37.639Z,22.19
2022-11-10T20:06:05.917Z,22.18
2022-11-10T20:08:32.506Z,22.18
2022-11-10T20:11:05.297Z,22.18
2022-11-10T20:13:31.805Z,22.18
2022-11-10T20:15:58.313Z,22.18
2022-11-10T20:18:24.947Z,22.19
2022-11-10T20:20:51.460Z,22.18
2022-11-10T20:23:19.501Z,22.17
2022-11-10T20:25:46.257Z,22.11
2022-11-10T20:28:14.300Z,22.18
2022-11-10T20:30:42.985Z,22.13
2022-11-10T20:33:09.563Z,22.18
2022-11-10T20:35:43.351Z,22.18
2022-11-10T20:38:11.126Z,22.13
2022-11-10T20:40:44.294Z,22.18
2022-11-10T20:43:12.505Z,22.19
2022-11-10T20:45:39.275Z,22.19
2022-11-10T20:48:05.801Z,22.18
2022-11-10T20:50:32.268Z,22.17
2022-11-10T20:52:58.796Z,22.18
2022-11-10T20:55:51.414Z,22.18
2022-11-10T20:58:11.818Z,22.17
2022-11-10T21:00:42.909Z,22.13
2022-11-10T21:03:09.573Z,22.18
2022-11-10T21:05:36.336Z,22.18
2022-11-10T21:08:02.839Z,22.12
2022-11-10T21:10:29.333Z,22.19
2022-11-10T21:12:55.841Z,22.20
2022-11-10T21:15:22.337Z,22.20
2022-11-10T21:17:48.833Z,22.21
2022-11-10T21:20:15.710Z,22.20
2022-11-10T21:22:42.256Z,22.19
2022-11-10T21:25:08.977Z,22.18
2022-11-10T21:27:35.479Z,22.17
2022-11-10T21:30:02.051Z,22.20
2022-11-10T21:32:28.596Z,22.19
2022-11-10T21:34:55.106Z,22.15
2022-11-10T21:37:21.669Z,22.19
2022-11-10T21:39:48.246Z,22.17
2022-11-10T21:42:14.799Z,22.18
2022-11-10T21:44:41.351Z,22.19
2022-11-10T21:47:09.653Z,22.19
2022-11-10T21:49:36.182Z,22.16
2022-11-10T21:52:02.675Z,22.19
2022-11-10T21:54:29.200Z,22.19
2022-11-10T21:56:55.713Z,22.19
2022-11-10T21:59:22.823Z,22.18
2022-11-10T22:01:49.409Z,22.19
2022-11-10T22:04:15.937Z,21.62
2022-11-10T22:07:01.087Z,22.19
2022-11-10T22:09:46.215Z,22.17
2022-11-10T22:12:48.284Z,22.16
2022-11-10T22:15:33.028Z,22.14
2022-11-10T22:18:18.385Z,22.15
2022-11-10T22:20:45.014Z,22.15
2022-11-10T22:23:11.856Z,22.08
2022-11-10T22:25:38.376Z,22.14
2022-11-10T22:30:31.711Z,22.14
2022-11-10T22:33:18.153Z,22.14
2022-11-10T22:35:44.730Z,22.14
2022-11-10T22:38:11.209Z,22.14
2022-11-10T22:40:56.648Z,22.15
2022-11-10T22:43:41.463Z,22.15
2022-11-10T22:46:07.992Z,22.14
2022-11-10T22:48:34.484Z,22.14
2022-11-10T22:51:01.025Z,22.11
2022-11-10T22:53:27.605Z,22.14
2022-11-10T22:55:58.065Z,22.14
2022-11-10T22:58:24.605Z,22.12
2022-11-10T23:00:51.132Z,22.12
2022-11-10T23:03:17.880Z,22.13
2022-11-10T23:05:44.495Z,22.12
2022-11-10T23:08:11.017Z,22.08
2022-11-10T23:13:03.853Z,22.13
2022-11-10T23:15:34.499Z,22.14
2022-11-10T23:18:06.324Z,22.13
2022-11-10T23:20:33.273Z,22.14
2022-11-10T23:22:59.764Z,22.13
2022-11-10T23:25:26.259Z,22.13
2022-11-10T23:27:52.770Z,22.13
2022-11-10T23:30:19.279Z,22.12
2022-11-10T23:32:45.751Z,22.13
2022-11-10T23:35:12.256Z,22.13
2022-11-10T23:37:38.784Z,22.12
2022-11-10T23:40:06.062Z,22.13
2022-11-10T23:42:33.187Z,22.12
2022-11-10T23:44:59.736Z,22.12
2022-11-10T23:47:26.294Z,22.11
2022-11-10T23:49:52.773Z,22.12
2022-11-10T23:52:19.265Z,22.11
2022-11-10T23:57:12.068Z,21.48
2022-11-10T23:59:38.545Z,22.11
